Romy Trader — ZDJX5 — position and weather

sailwx.info

Track history (hours):
 
Tides and Currents Weather Stations Pressure Air Temp Water Temp Dewpoint Dewpoint Depression Visibility Wind Speed Wind Dir Waves Ship Positions

Romy Trader

Last reported at 2018-Jan-22 05:17 UTC. Time now 2018-Jan-22 12:41 UTC.
Position N 36°06' W 005°23'.

Length 132 m; draft 5.2 m.

Type: Ship. MMSI: 236576000.

Date/timePositionNaut miles runAvg speedWind from/ knotsBaromVisibWave heightAir tempDewpointWater temp
2018-Jan-22 05:17N 36°06' W 005°23'2 7.7
2018-Jan-22 04:57N 36°04' W 005°23'4 9.5
2018-Jan-22 04:30N 35°60' W 005°24'164 4.7
2018-Jan-20 17:45N 36°26' W 008°45'612.8
2018-Jan-20 17:17N 36°28' W 008°52'2112.9
2018-Jan-20 15:39N 36°33' W 009°18'212.2
2018-Jan-20 15:30N 36°34' W 009°20'712.9
2018-Jan-20 14:58N 36°39' W 009°25'612.9
2018-Jan-20 14:31N 36°44' W 009°30'612.8
2018-Jan-20 14:00N 36°49' W 009°34'713.5
2018-Jan-20 13:30N 36°56' W 009°36'713.5
2018-Jan-20 12:59N 37°03' W 009°38'613.6
2018-Jan-20 12:30N 37°09' W 009°39'713.6
2018-Jan-20 12:00N 37°16' W 009°41'714.0
2018-Jan-20 11:29N 37°23' W 009°44'713.6
2018-Jan-20 11:00N 37°29' W 009°46'713.9
2018-Jan-20 10:30N 37°36' W 009°49'713.8
2018-Jan-20 10:00N 37°42' W 009°51'713.3
2018-Jan-20 09:30N 37°49' W 009°53'713.5
2018-Jan-20 09:01N 37°55' W 009°54'713.6
2018-Jan-20 08:30N 38°02' W 009°56'714.0
2018-Jan-20 08:00N 38°09' W 009°58'713.9
2018-Jan-20 07:31N 38°16' W 010°00'713.9
2018-Jan-20 07:00N 38°23' W 010°02'713.8
2018-Jan-20 06:31N 38°29' W 010°04'713.8
2018-Jan-20 06:01N 38°36' W 010°05'714.1
2018-Jan-20 05:31N 38°43' W 010°06'714.4
2018-Jan-20 05:00N 38°50' W 010°06'713.8
2018-Jan-20 04:30N 38°57' W 010°05'1113.7
2018-Jan-20 03:44N 39°07' W 010°02'313.9
2018-Jan-20 03:30N 39°10' W 010°01'813.7
2018-Jan-20 02:57N 39°18' W 009°59'1014.1
2018-Jan-20 02:14N 39°28' W 009°56'119 3.5
2018-Jan-18 16:05N 41°16' W 008°49'111.9
2018-Jan-18 16:00N 41°15' W 008°48'611.7
2018-Jan-18 15:30N 41°10' W 008°43'2 4.0
2018-Jan-18 14:59N 41°12' W 008°41'0 0.0
2018-Jan-18 14:29N 41°12' W 008°41'0 0.0
2018-Jan-18 13:59N 41°12' W 008°41'0 0.0
2018-Jan-18 13:29N 41°12' W 008°41'0 0.0
2018-Jan-18 12:59N 41°12' W 008°41'0 0.0
2018-Jan-18 12:29N 41°12' W 008°41'0 0.0
2018-Jan-18 11:59N 41°12' W 008°41'0 0.0
2018-Jan-18 11:29N 41°12' W 008°41'0 0.0
2018-Jan-18 10:59N 41°12' W 008°41'0 0.0
2018-Jan-18 10:29N 41°12' W 008°41'0 0.0
2018-Jan-18 09:59N 41°12' W 008°41'0 0.0
2018-Jan-18 09:29N 41°12' W 008°41'0 0.0
2018-Jan-18 08:59N 41°12' W 008°41'0 0.0
2018-Jan-18 08:29N 41°12' W 008°41'1 2.3
2018-Jan-18 07:59N 41°11' W 008°42'3 6.7
2018-Jan-18 07:30N 41°08' W 008°44'4 8.7
2018-Jan-18 07:00N 41°04' W 008°47'  
Track history (hours):
 
Tides and Currents Weather Stations Pressure Air Temp Water Temp Dewpoint Dewpoint Depression Visibility Wind Speed Wind Dir Waves Ship Positions

Romy Trader

Last reported at 2018-Jan-22 05:17 UTC. Time now 2018-Jan-22 12:41 UTC.
Position N 36°06' W 005°23'.

Length 132 m; draft 5.2 m.

Type: Ship. MMSI: 236576000.

Date/timePositionNaut miles runAvg speedWind from/ knotsBaromVisibWave heightAir tempDewpointWater temp
2018-Jan-22 05:17N 36°06' W 005°23'2 7.7
2018-Jan-22 04:57N 36°04' W 005°23'4 9.5
2018-Jan-22 04:30N 35°60' W 005°24'164 4.7
2018-Jan-20 17:45N 36°26' W 008°45'612.8
2018-Jan-20 17:17N 36°28' W 008°52'2112.9
2018-Jan-20 15:39N 36°33' W 009°18'212.2
2018-Jan-20 15:30N 36°34' W 009°20'712.9
2018-Jan-20 14:58N 36°39' W 009°25'612.9
2018-Jan-20 14:31N 36°44' W 009°30'612.8
2018-Jan-20 14:00N 36°49' W 009°34'713.5
2018-Jan-20 13:30N 36°56' W 009°36'713.5
2018-Jan-20 12:59N 37°03' W 009°38'613.6
2018-Jan-20 12:30N 37°09' W 009°39'713.6
2018-Jan-20 12:00N 37°16' W 009°41'714.0
2018-Jan-20 11:29N 37°23' W 009°44'713.6
2018-Jan-20 11:00N 37°29' W 009°46'713.9
2018-Jan-20 10:30N 37°36' W 009°49'713.8
2018-Jan-20 10:00N 37°42' W 009°51'713.3
2018-Jan-20 09:30N 37°49' W 009°53'713.5
2018-Jan-20 09:01N 37°55' W 009°54'713.6
2018-Jan-20 08:30N 38°02' W 009°56'714.0
2018-Jan-20 08:00N 38°09' W 009°58'713.9
2018-Jan-20 07:31N 38°16' W 010°00'713.9
2018-Jan-20 07:00N 38°23' W 010°02'713.8
2018-Jan-20 06:31N 38°29' W 010°04'713.8
2018-Jan-20 06:01N 38°36' W 010°05'714.1
2018-Jan-20 05:31N 38°43' W 010°06'714.4
2018-Jan-20 05:00N 38°50' W 010°06'713.8
2018-Jan-20 04:30N 38°57' W 010°05'1113.7
2018-Jan-20 03:44N 39°07' W 010°02'313.9
2018-Jan-20 03:30N 39°10' W 010°01'813.7
2018-Jan-20 02:57N 39°18' W 009°59'1014.1
2018-Jan-20 02:14N 39°28' W 009°56'119 3.5
2018-Jan-18 16:05N 41°16' W 008°49'111.9
2018-Jan-18 16:00N 41°15' W 008°48'611.7
2018-Jan-18 15:30N 41°10' W 008°43'2 4.0
2018-Jan-18 14:59N 41°12' W 008°41'0 0.0
2018-Jan-18 14:29N 41°12' W 008°41'0 0.0
2018-Jan-18 13:59N 41°12' W 008°41'0 0.0
2018-Jan-18 13:29N 41°12' W 008°41'0 0.0
2018-Jan-18 12:59N 41°12' W 008°41'0 0.0
2018-Jan-18 12:29N 41°12' W 008°41'0 0.0
2018-Jan-18 11:59N 41°12' W 008°41'0 0.0
2018-Jan-18 11:29N 41°12' W 008°41'0 0.0
2018-Jan-18 10:59N 41°12' W 008°41'0 0.0
2018-Jan-18 10:29N 41°12' W 008°41'0 0.0
2018-Jan-18 09:59N 41°12' W 008°41'0 0.0
2018-Jan-18 09:29N 41°12' W 008°41'0 0.0
2018-Jan-18 08:59N 41°12' W 008°41'0 0.0
2018-Jan-18 08:29N 41°12' W 008°41'1 2.3
2018-Jan-18 07:59N 41°11' W 008°42'3 6.7
2018-Jan-18 07:30N 41°08' W 008°44'4 8.7
2018-Jan-18 07:00N 41°04' W 008°47'  

Dump ship's entire track history